DAL1209 KSLC-KLAS
Flight info
| Callsign | DAL1209 |
|---|---|
| Flight time | 0h 52m |
| Altitude | 30000 |
| Route | ZIONZ1 EHK STEWW CHOWW4 |
| Aircraft | A321/M-SDE3FGHIRWY/LB1 |
Departure
| Time | 2026-05-07 21:07 |
|---|---|
| Airport | Salt Lake City International Airport (KSLC) |
Arrival
| Time | 2026-05-07 21:59 |
|---|---|
| Airport | Harry Reid International Airport (KLAS) |
| Time | Latitude | Longitude | Altitude | Speed | Heading |
|---|---|---|---|---|---|
| 2026-05-07 20:38 | 40.78653 | -111.97978 | 4231 ft | 0 kts | 175° |
| 2026-05-07 20:55 | 40.78665 | -111.97979 | 4231 ft | 4 kts | 175° |
| 2026-05-07 20:55 | 40.78692 | -111.97982 | 4231 ft | 4 kts | 174° |
| 2026-05-07 20:56 | 40.78718 | -111.97989 | 4231 ft | 4 kts | 151° |
| 2026-05-07 20:56 | 40.78736 | -111.98011 | 4231 ft | 4 kts | 105° |
| 2026-05-07 20:56 | 40.78737 | -111.98026 | 4231 ft | 0 kts | 85° |
| 2026-05-07 20:58 | 40.78738 | -111.98010 | 4231 ft | 4 kts | 85° |
| 2026-05-07 20:59 | 40.78740 | -111.97978 | 4231 ft | 2 kts | 85° |
| 2026-05-07 20:59 | 40.78743 | -111.97927 | 4231 ft | 12 kts | 85° |
| 2026-05-07 20:59 | 40.78779 | -111.97796 | 4230 ft | 16 kts | 21° |
| 2026-05-07 20:59 | 40.78875 | -111.97794 | 4231 ft | 8 kts | 343° |
| 2026-05-07 21:00 | 40.78938 | -111.97811 | 4231 ft | 0 kts | 341° |
| 2026-05-07 21:00 | 40.78977 | -111.97815 | 4231 ft | 32 kts | 5° |
| 2026-05-07 21:00 | 40.79240 | -111.97822 | 4230 ft | 24 kts | 335° |
| 2026-05-07 21:00 | 40.79398 | -111.97851 | 4231 ft | 22 kts | 351° |
| 2026-05-07 21:01 | 40.79548 | -111.97875 | 4231 ft | 21 kts | 354° |
| 2026-05-07 21:01 | 40.79688 | -111.97886 | 4231 ft | 19 kts | 356° |
| 2026-05-07 21:01 | 40.79818 | -111.97892 | 4231 ft | 18 kts | 359° |
| 2026-05-07 21:01 | 40.79939 | -111.97904 | 4231 ft | 19 kts | 354° |
| 2026-05-07 21:02 | 40.80081 | -111.97934 | 4231 ft | 21 kts | 358° |
| 2026-05-07 21:02 | 40.80226 | -111.97948 | 4231 ft | 21 kts | 352° |
| 2026-05-07 21:02 | 40.80365 | -111.97993 | 4231 ft | 20 kts | 350° |
| 2026-05-07 21:02 | 40.80503 | -111.98007 | 4231 ft | 18 kts | 359° |
| 2026-05-07 21:03 | 40.80608 | -111.98018 | 4231 ft | 14 kts | 360° |
| 2026-05-07 21:03 | 40.80658 | -111.97966 | 4231 ft | 7 kts | 79° |
| 2026-05-07 21:03 | 40.80687 | -111.97878 | 4229 ft | 12 kts | 36° |
| 2026-05-07 21:03 | 40.80741 | -111.97806 | 4230 ft | 13 kts | 76° |
| 2026-05-07 21:04 | 40.80684 | -111.97690 | 4229 ft | 11 kts | 156° |
| 2026-05-07 21:04 | 40.80651 | -111.97688 | 4229 ft | 0 kts | 180° |
| 2026-05-07 21:06 | 40.80563 | -111.97683 | 4232 ft | 41 kts | 176° |
| 2026-05-07 21:06 | 40.80036 | -111.97619 | 4232 ft | 108 kts | 173° |
| 2026-05-07 21:06 | 40.79094 | -111.97504 | 4232 ft | 161 kts | 175° |
| 2026-05-07 21:06 | 40.77826 | -111.97347 | 4288 ft | 200 kts | 174° |
| 2026-05-07 21:07 | 40.76493 | -111.97134 | 5027 ft | 187 kts | 173° |
| 2026-05-07 21:07 | 40.75202 | -111.96885 | 5622 ft | 187 kts | 176° |
| 2026-05-07 21:07 | 40.73919 | -111.96593 | 6196 ft | 188 kts | 171° |
| 2026-05-07 21:07 | 40.72604 | -111.96260 | 6586 ft | 199 kts | 172° |
| 2026-05-07 21:08 | 40.71214 | -111.95903 | 6830 ft | 209 kts | 171° |
| 2026-05-07 21:08 | 40.69730 | -111.95576 | 7027 ft | 223 kts | 172° |
| 2026-05-07 21:08 | 40.68152 | -111.95219 | 7176 ft | 237 kts | 171° |
| 2026-05-07 21:08 | 40.66470 | -111.94832 | 7314 ft | 257 kts | 173° |
| 2026-05-07 21:09 | 40.64631 | -111.94421 | 7631 ft | 277 kts | 174° |
| 2026-05-07 21:09 | 40.62689 | -111.94007 | 8171 ft | 286 kts | 174° |
| 2026-05-07 21:09 | 40.60696 | -111.93618 | 8873 ft | 292 kts | 177° |
| 2026-05-07 21:09 | 40.58657 | -111.93263 | 9546 ft | 297 kts | 181° |
| 2026-05-07 21:10 | 40.56611 | -111.93402 | 10257 ft | 299 kts | 192° |
| 2026-05-07 21:10 | 40.54463 | -111.93779 | 10403 ft | 323 kts | 192° |
| 2026-05-07 21:10 | 40.52156 | -111.94199 | 10554 ft | 346 kts | 192° |
| 2026-05-07 21:10 | 40.49695 | -111.94634 | 10689 ft | 368 kts | 192° |
| 2026-05-07 21:11 | 40.47110 | -111.95067 | 11075 ft | 380 kts | 189° |
| 2026-05-07 21:11 | 40.44437 | -111.95126 | 11700 ft | 387 kts | 179° |
| 2026-05-07 21:11 | 40.38996 | -111.94714 | 12901 ft | 395 kts | 179° |
| 2026-05-07 21:12 | 40.36234 | -111.94516 | 13471 ft | 400 kts | 180° |
| 2026-05-07 21:12 | 40.33444 | -111.94323 | 14028 ft | 404 kts | 180° |
| 2026-05-07 21:12 | 40.30620 | -111.94131 | 14535 ft | 408 kts | 181° |
| 2026-05-07 21:12 | 40.27767 | -111.93950 | 15016 ft | 412 kts | 182° |
| 2026-05-07 21:13 | 40.24909 | -111.94177 | 15509 ft | 412 kts | 191° |
| 2026-05-07 21:13 | 40.22055 | -111.94639 | 15963 ft | 416 kts | 191° |
| 2026-05-07 21:13 | 40.19202 | -111.95096 | 16467 ft | 419 kts | 191° |
| 2026-05-07 21:13 | 40.16295 | -111.95555 | 16944 ft | 423 kts | 191° |
| 2026-05-07 21:14 | 40.13353 | -111.96014 | 17407 ft | 427 kts | 191° |
| 2026-05-07 21:14 | 40.10385 | -111.96468 | 17857 ft | 431 kts | 191° |
| 2026-05-07 21:14 | 40.07394 | -111.96907 | 18293 ft | 435 kts | 191° |
| 2026-05-07 21:14 | 40.04374 | -111.97338 | 18682 ft | 438 kts | 190° |
| 2026-05-07 21:15 | 40.01332 | -111.97768 | 19060 ft | 442 kts | 190° |
| 2026-05-07 21:15 | 39.98264 | -111.98203 | 19468 ft | 445 kts | 190° |
| 2026-05-07 21:15 | 39.95178 | -111.98651 | 19866 ft | 448 kts | 190° |
| 2026-05-07 21:15 | 39.92065 | -111.99111 | 20255 ft | 452 kts | 190° |
| 2026-05-07 21:16 | 39.88933 | -111.99573 | 20651 ft | 455 kts | 190° |
| 2026-05-07 21:16 | 39.85776 | -112.00032 | 21052 ft | 458 kts | 190° |
| 2026-05-07 21:16 | 39.82597 | -112.00494 | 21436 ft | 461 kts | 190° |
| 2026-05-07 21:16 | 39.79403 | -112.00959 | 21830 ft | 464 kts | 190° |
| 2026-05-07 21:17 | 39.76181 | -112.01427 | 22221 ft | 467 kts | 190° |
| 2026-05-07 21:17 | 39.72935 | -112.01903 | 22584 ft | 470 kts | 190° |
| 2026-05-07 21:17 | 39.69676 | -112.02382 | 22952 ft | 473 kts | 190° |
| 2026-05-07 21:17 | 39.66394 | -112.02864 | 23336 ft | 476 kts | 189° |
| 2026-05-07 21:18 | 39.63088 | -112.03348 | 23678 ft | 479 kts | 190° |
| 2026-05-07 21:18 | 39.59761 | -112.03833 | 23975 ft | 482 kts | 189° |
| 2026-05-07 21:18 | 39.56462 | -112.04308 | 24283 ft | 485 kts | 189° |
| 2026-05-07 21:18 | 39.53102 | -112.04788 | 24597 ft | 487 kts | 189° |
| 2026-05-07 21:19 | 39.49728 | -112.05268 | 24899 ft | 489 kts | 189° |
| 2026-05-07 21:19 | 39.46337 | -112.05755 | 25188 ft | 491 kts | 189° |
| 2026-05-07 21:19 | 39.42934 | -112.06244 | 25494 ft | 493 kts | 189° |
| 2026-05-07 21:19 | 39.39511 | -112.06735 | 25767 ft | 495 kts | 189° |
| 2026-05-07 21:20 | 39.36082 | -112.07226 | 26094 ft | 497 kts | 189° |
| 2026-05-07 21:20 | 39.32635 | -112.07715 | 26410 ft | 499 kts | 189° |
| 2026-05-07 21:20 | 39.29178 | -112.08204 | 26711 ft | 501 kts | 189° |
| 2026-05-07 21:20 | 39.25698 | -112.08695 | 27002 ft | 503 kts | 189° |
| 2026-05-07 21:21 | 39.22217 | -112.09181 | 27376 ft | 503 kts | 189° |
| 2026-05-07 21:21 | 39.18746 | -112.09664 | 27774 ft | 502 kts | 188° |
| 2026-05-07 21:21 | 39.15319 | -112.10389 | 28167 ft | 497 kts | 197° |
| 2026-05-07 21:21 | 39.12035 | -112.11736 | 28562 ft | 493 kts | 205° |
| 2026-05-07 21:22 | 39.08970 | -112.13652 | 28912 ft | 488 kts | 213° |
| 2026-05-07 21:22 | 39.06028 | -112.15818 | 29299 ft | 487 kts | 213° |
| 2026-05-07 21:22 | 39.03082 | -112.17976 | 29704 ft | 487 kts | 213° |
| 2026-05-07 21:22 | 39.00137 | -112.20126 | 30029 ft | 487 kts | 213° |
| 2026-05-07 21:23 | 38.94243 | -112.24409 | 30120 ft | 486 kts | 213° |
| 2026-05-07 21:23 | 38.88353 | -112.28674 | 30117 ft | 486 kts | 213° |
| 2026-05-07 21:24 | 38.82461 | -112.32939 | 30108 ft | 486 kts | 213° |
| 2026-05-07 21:24 | 38.76565 | -112.37212 | 30095 ft | 487 kts | 213° |
| 2026-05-07 21:25 | 38.70673 | -112.41468 | 30081 ft | 487 kts | 213° |
| 2026-05-07 21:25 | 38.64753 | -112.45731 | 30033 ft | 488 kts | 212° |
| 2026-05-07 21:26 | 38.58864 | -112.49965 | 30046 ft | 488 kts | 212° |
| 2026-05-07 21:26 | 38.52948 | -112.54217 | 30045 ft | 488 kts | 212° |
| 2026-05-07 21:27 | 38.47022 | -112.58461 | 30051 ft | 488 kts | 212° |
| 2026-05-07 21:27 | 38.41098 | -112.62701 | 30056 ft | 488 kts | 212° |
| 2026-05-07 21:28 | 38.36168 | -112.66223 | 30063 ft | 488 kts | 212° |
| 2026-05-07 21:28 | 38.30233 | -112.70452 | 30062 ft | 488 kts | 212° |
| 2026-05-07 21:29 | 38.24300 | -112.74669 | 30047 ft | 488 kts | 212° |
| 2026-05-07 21:29 | 38.18361 | -112.78879 | 30019 ft | 489 kts | 212° |
| 2026-05-07 21:30 | 38.12417 | -112.83091 | 30027 ft | 490 kts | 212° |
| 2026-05-07 21:30 | 38.06465 | -112.87299 | 30010 ft | 490 kts | 212° |
| 2026-05-07 21:31 | 38.00514 | -112.91504 | 30009 ft | 489 kts | 212° |
| 2026-05-07 21:31 | 37.94565 | -112.95705 | 30065 ft | 490 kts | 212° |
| 2026-05-07 21:32 | 37.88604 | -112.99907 | 30102 ft | 491 kts | 212° |
| 2026-05-07 21:32 | 37.82624 | -113.04091 | 30135 ft | 491 kts | 211° |
| 2026-05-07 21:33 | 37.76808 | -113.08477 | 30158 ft | 489 kts | 218° |
| 2026-05-07 21:33 | 37.71213 | -113.13366 | 30157 ft | 489 kts | 217° |
| 2026-05-07 21:34 | 37.65599 | -113.18247 | 30156 ft | 490 kts | 217° |
| 2026-05-07 21:34 | 37.59964 | -113.23115 | 30128 ft | 491 kts | 217° |
| 2026-05-07 21:35 | 37.54328 | -113.27979 | 30085 ft | 491 kts | 217° |
| 2026-05-07 21:35 | 37.48688 | -113.32835 | 30047 ft | 491 kts | 217° |
| 2026-05-07 21:36 | 37.43049 | -113.37692 | 29992 ft | 491 kts | 217° |
| 2026-05-07 21:36 | 37.37413 | -113.42542 | 29989 ft | 490 kts | 216° |
| 2026-05-07 21:37 | 37.31779 | -113.47366 | 29983 ft | 490 kts | 216° |
| 2026-05-07 21:37 | 37.26180 | -113.52169 | 30002 ft | 491 kts | 216° |
| 2026-05-07 21:38 | 37.23463 | -113.54678 | 30001 ft | 476 kts | 222° |
| 2026-05-07 21:38 | 37.20954 | -113.57276 | 30008 ft | 458 kts | 222° |
| 2026-05-07 21:38 | 37.18531 | -113.59782 | 30014 ft | 447 kts | 222° |
| 2026-05-07 21:38 | 37.16142 | -113.62253 | 29834 ft | 444 kts | 222° |
| 2026-05-07 21:39 | 37.13771 | -113.64707 | 29566 ft | 440 kts | 222° |
| 2026-05-07 21:39 | 37.11414 | -113.67146 | 29284 ft | 439 kts | 222° |
| 2026-05-07 21:39 | 37.09063 | -113.69578 | 29010 ft | 438 kts | 222° |
| 2026-05-07 21:39 | 37.06717 | -113.72000 | 28739 ft | 436 kts | 222° |
| 2026-05-07 21:40 | 37.04379 | -113.74412 | 28463 ft | 434 kts | 222° |
| 2026-05-07 21:40 | 37.02053 | -113.76813 | 28183 ft | 432 kts | 222° |
| 2026-05-07 21:40 | 36.99734 | -113.79201 | 27918 ft | 431 kts | 221° |
| 2026-05-07 21:40 | 36.97426 | -113.81572 | 27640 ft | 429 kts | 221° |
| 2026-05-07 21:41 | 36.95122 | -113.83939 | 27109 ft | 428 kts | 221° |
| 2026-05-07 21:41 | 36.92826 | -113.86296 | 26566 ft | 426 kts | 221° |
| 2026-05-07 21:41 | 36.90536 | -113.88638 | 26007 ft | 424 kts | 221° |
| 2026-05-07 21:41 | 36.88255 | -113.90969 | 25501 ft | 422 kts | 221° |
| 2026-05-07 21:42 | 36.86007 | -113.93267 | 25213 ft | 414 kts | 221° |
| 2026-05-07 21:42 | 36.83793 | -113.95534 | 24807 ft | 409 kts | 221° |
| 2026-05-07 21:42 | 36.81604 | -113.97783 | 24377 ft | 406 kts | 221° |
| 2026-05-07 21:42 | 36.79431 | -114.00018 | 23946 ft | 403 kts | 221° |
| 2026-05-07 21:43 | 36.77277 | -114.02233 | 23595 ft | 398 kts | 221° |
| 2026-05-07 21:43 | 36.75173 | -114.04392 | 23458 ft | 386 kts | 221° |
| 2026-05-07 21:43 | 36.73120 | -114.06494 | 23175 ft | 379 kts | 221° |
| 2026-05-07 21:43 | 36.71094 | -114.08567 | 22782 ft | 375 kts | 221° |
| 2026-05-07 21:44 | 36.69088 | -114.10618 | 22373 ft | 372 kts | 221° |
| 2026-05-07 21:44 | 36.67097 | -114.12651 | 21964 ft | 369 kts | 221° |
| 2026-05-07 21:44 | 36.65065 | -114.14578 | 21539 ft | 367 kts | 212° |
| 2026-05-07 21:44 | 36.62712 | -114.15778 | 21138 ft | 366 kts | 195° |
| 2026-05-07 21:45 | 36.60243 | -114.16564 | 20708 ft | 365 kts | 195° |
| 2026-05-07 21:45 | 36.57789 | -114.17330 | 20307 ft | 363 kts | 195° |
| 2026-05-07 21:45 | 36.55349 | -114.18084 | 19922 ft | 360 kts | 194° |
| 2026-05-07 21:45 | 36.52929 | -114.18829 | 19545 ft | 357 kts | 195° |
| 2026-05-07 21:46 | 36.50552 | -114.19561 | 19178 ft | 355 kts | 195° |
| 2026-05-07 21:46 | 36.48164 | -114.20298 | 18805 ft | 353 kts | 195° |
| 2026-05-07 21:46 | 36.45793 | -114.21030 | 18439 ft | 350 kts | 195° |
| 2026-05-07 21:46 | 36.43437 | -114.21757 | 18060 ft | 348 kts | 195° |
| 2026-05-07 21:47 | 36.41147 | -114.22675 | 17662 ft | 344 kts | 206° |
| 2026-05-07 21:47 | 36.39116 | -114.24194 | 17268 ft | 339 kts | 221° |
| 2026-05-07 21:47 | 36.37450 | -114.26220 | 16856 ft | 334 kts | 234° |
| 2026-05-07 21:47 | 36.36017 | -114.28475 | 16468 ft | 332 kts | 234° |
| 2026-05-07 21:48 | 36.34590 | -114.30719 | 16098 ft | 330 kts | 234° |
| 2026-05-07 21:48 | 36.33170 | -114.32947 | 15730 ft | 328 kts | 234° |
| 2026-05-07 21:48 | 36.31756 | -114.35163 | 15366 ft | 326 kts | 234° |
| 2026-05-07 21:48 | 36.30352 | -114.37362 | 15009 ft | 325 kts | 233° |
| 2026-05-07 21:49 | 36.28953 | -114.39553 | 14636 ft | 324 kts | 233° |
| 2026-05-07 21:49 | 36.27554 | -114.41736 | 14303 ft | 322 kts | 233° |
| 2026-05-07 21:49 | 36.26164 | -114.43905 | 13947 ft | 321 kts | 233° |
| 2026-05-07 21:49 | 36.24781 | -114.46060 | 13601 ft | 319 kts | 233° |
| 2026-05-07 21:50 | 36.23395 | -114.48196 | 13228 ft | 317 kts | 233° |
| 2026-05-07 21:50 | 36.22014 | -114.50308 | 12859 ft | 314 kts | 233° |
| 2026-05-07 21:50 | 36.20640 | -114.52403 | 12505 ft | 312 kts | 233° |
| 2026-05-07 21:50 | 36.19280 | -114.54483 | 12136 ft | 310 kts | 233° |
| 2026-05-07 21:51 | 36.17923 | -114.56557 | 11786 ft | 309 kts | 233° |
| 2026-05-07 21:51 | 36.16579 | -114.58614 | 11438 ft | 306 kts | 233° |
| 2026-05-07 21:51 | 36.15243 | -114.60658 | 11098 ft | 305 kts | 233° |
| 2026-05-07 21:51 | 36.13914 | -114.62690 | 10763 ft | 303 kts | 233° |
| 2026-05-07 21:52 | 36.12593 | -114.64710 | 10517 ft | 299 kts | 233° |
| 2026-05-07 21:52 | 36.11309 | -114.66667 | 10393 ft | 286 kts | 233° |
| 2026-05-07 21:52 | 36.10090 | -114.68520 | 10242 ft | 270 kts | 233° |
| 2026-05-07 21:52 | 36.08920 | -114.70298 | 9905 ft | 264 kts | 234° |
| 2026-05-07 21:53 | 36.07875 | -114.72131 | 9465 ft | 258 kts | 248° |
| 2026-05-07 21:53 | 36.07378 | -114.74155 | 9230 ft | 244 kts | 265° |
| 2026-05-07 21:53 | 36.07330 | -114.76216 | 8898 ft | 239 kts | 272° |
| 2026-05-07 21:53 | 36.07332 | -114.78265 | 8520 ft | 238 kts | 272° |
| 2026-05-07 21:54 | 36.07335 | -114.80308 | 8152 ft | 237 kts | 272° |
| 2026-05-07 21:54 | 36.07340 | -114.82338 | 7797 ft | 236 kts | 272° |
| 2026-05-07 21:54 | 36.07344 | -114.84372 | 7403 ft | 237 kts | 271° |
| 2026-05-07 21:54 | 36.07348 | -114.86412 | 6998 ft | 238 kts | 271° |
| 2026-05-07 21:55 | 36.07361 | -114.88479 | 6492 ft | 243 kts | 271° |
| 2026-05-07 21:55 | 36.07390 | -114.90563 | 5842 ft | 243 kts | 269° |
| 2026-05-07 21:55 | 36.07373 | -114.92640 | 5172 ft | 241 kts | 269° |
| 2026-05-07 21:55 | 36.07369 | -114.94704 | 4561 ft | 238 kts | 271° |
| 2026-05-07 21:56 | 36.07418 | -114.96757 | 3915 ft | 238 kts | 271° |
| 2026-05-07 21:56 | 36.07409 | -114.98698 | 3858 ft | 217 kts | 270° |
| 2026-05-07 21:56 | 36.07371 | -115.00516 | 3794 ft | 207 kts | 269° |
| 2026-05-07 21:56 | 36.07359 | -115.02258 | 3788 ft | 200 kts | 270° |
| 2026-05-07 21:57 | 36.07362 | -115.03932 | 3667 ft | 184 kts | 270° |
| 2026-05-07 21:57 | 36.07373 | -115.05423 | 3513 ft | 166 kts | 270° |
| 2026-05-07 21:57 | 36.07378 | -115.06813 | 3214 ft | 159 kts | 270° |
| 2026-05-07 21:57 | 36.07377 | -115.08161 | 2930 ft | 155 kts | 270° |
| 2026-05-07 21:58 | 36.07361 | -115.09484 | 2596 ft | 152 kts | 270° |
| 2026-05-07 21:58 | 36.07368 | -115.10787 | 2415 ft | 151 kts | 271° |
| 2026-05-07 21:58 | 36.07377 | -115.12086 | 2262 ft | 151 kts | 271° |
| 2026-05-07 21:58 | 36.07372 | -115.13328 | 2188 ft | 130 kts | 270° |
| 2026-05-07 21:59 | 36.07358 | -115.14184 | 2190 ft | 74 kts | 271° |
| 2026-05-07 21:59 | 36.07367 | -115.14671 | 2190 ft | 46 kts | 271° |
| 2026-05-07 21:59 | 36.07399 | -115.14913 | 2193 ft | 12 kts | 301° |
| 2026-05-07 21:59 | 36.07443 | -115.14996 | 2191 ft | 12 kts | 300° |
| 2026-05-07 22:00 | 36.07488 | -115.15077 | 2191 ft | 11 kts | 309° |
| 2026-05-07 22:00 | 36.07568 | -115.15153 | 2191 ft | 18 kts | 335° |
| 2026-05-07 22:00 | 36.07683 | -115.15221 | 2190 ft | 19 kts | 328° |
| 2026-05-07 22:00 | 36.07791 | -115.15227 | 2189 ft | 16 kts | 50° |
| 2026-05-07 22:01 | 36.07802 | -115.15097 | 2190 ft | 17 kts | 91° |
| 2026-05-07 22:01 | 36.07793 | -115.14922 | 2189 ft | 21 kts | 94° |
| 2026-05-07 22:01 | 36.07779 | -115.14745 | 2188 ft | 20 kts | 95° |
| 2026-05-07 22:01 | 36.07768 | -115.14574 | 2187 ft | 19 kts | 93° |
| 2026-05-07 22:02 | 36.07759 | -115.14415 | 2189 ft | 18 kts | 94° |
| 2026-05-07 22:02 | 36.07753 | -115.14269 | 2188 ft | 16 kts | 90° |
| 2026-05-07 22:02 | 36.07766 | -115.14179 | 2188 ft | 9 kts | 53° |
| 2026-05-07 22:02 | 36.07858 | -115.14159 | 2190 ft | 17 kts | 1° |
| 2026-05-07 22:03 | 36.07905 | -115.14068 | 2188 ft | 13 kts | 92° |
| 2026-05-07 22:03 | 36.07910 | -115.14012 | 2189 ft | 7 kts | 86° |
| 2026-05-07 22:03 | 36.07928 | -115.13959 | 2189 ft | 6 kts | 33° |
| 2026-05-07 22:03 | 36.07946 | -115.13956 | 2189 ft | 1 kts | 2° |
| 2026-05-07 22:04 | 36.07983 | -115.13958 | 2190 ft | 6 kts | 354° |
| 2026-05-07 22:04 | 36.07987 | -115.13959 | 2190 ft | 0 kts | 353° |